Flight Track Log - Related Links

Times and Time Zones

All times are in EDT time to prevent confusion due to time zone crossing. See the XOJ793 flight status page for this flight to view local times or setup timezone preferences in your user account.

Time Position Orientation Groundspeed Altitude Reporting Facility
EDT Latitude Longitude Course Direction KTS MPH feet Rate Location/Type
Tue 09:28:10 AM 40.8167 -74.1333 270° West 213 245 1,200  Level New York TRACON
Tue 09:29:10 AM 40.8167 -74.2167 270° West 235 270 1,900 2,012 Climbing New York TRACON
Tue 09:30:54 AM 40.8128 -74.3739 268° West 259 298 6,700 2,834 Climbing New York Center
Tue 09:31:53 AM 40.7975 -74.4689 258° West 259 298 9,600 2,339 Climbing New York Center
Tue 09:32:52 AM 40.7800 -74.5639 256° West 277 319 11,300 1,686 Climbing New York Center
Tue 09:33:00 AM 40.6833 -75.0122 270° West  Level FlightAware Approximate
Tue 09:33:54 AM 40.7592 -74.6861 257° West 314 361 13,000  Level New York Center
Tue 09:34:54 AM 40.7389 -74.7944 256° West 337 388 14,400 1,388 Climbing New York Center
Tue 09:35:55 AM 40.7139 -74.9189 255° West 349 402 15,800 1,650 Climbing New York Center
Tue 09:36:54 AM 40.6881 -75.0569 256° West 355 409 17,700 1,692 Climbing New York Center
Tue 09:37:52 AM 40.6422 -75.1689 242° Southwest 349 402 19,100 1,488 Climbing New York Center
Tue 09:38:55 AM 40.5919 -75.2831 240° Southwest 355 409 20,700 1,550 Climbing New York Center
Tue 09:39:52 AM 40.5419 -75.3892 238° Southwest 369 425 22,200 1,412 Climbing New York Center
Tue 09:40:54 AM 40.4872 -75.5083 239° Southwest 374 430 23,500 1,400 Climbing New York Center
Tue 09:41:52 AM 40.4344 -75.6272 240° Southwest 374 430 25,000 1,462 Climbing New York Center
Tue 09:42:53 AM 40.3794 -75.7489 239° Southwest 379 436 26,400 1,350 Climbing New York Center
Tue 09:43:52 AM 40.3178 -75.8778 238° Southwest 392 451 27,700 1,300 Climbing New York Center
Tue 09:44:53 AM 40.2617 -76.0122 241° Southwest 415 478 29,000 1,180 Climbing New York Center
Tue 09:45:54 AM 40.2139 -76.1528 246° West 428 493 30,100 942 Climbing New York Center
Tue 09:46:54 AM 40.1611 -76.2981 245° Southwest 438 504 30,900 857 Climbing New York Center
Tue 09:47:53 AM 40.1061 -76.4458 244° Southwest 449 517 31,800 900 Climbing New York Center
Tue 09:50:14 AM 39.9678 -76.8231 245° Southwest 476 548 33,900 866 Climbing Washington Center
Tue 09:51:14 AM 39.9097 -76.9817 245° Southwest 482 555 34,700 915 Climbing Washington Center
Tue 09:52:12 AM 39.8475 -77.1400 243° Southwest 487 560 35,700 1,109 Climbing Washington Center
Tue 09:53:13 AM 39.7911 -77.2956 245° Southwest 482 555 36,900 1,180 Climbing Washington Center
Tue 09:54:14 AM 39.7328 -77.4506 244° Southwest 482 555 38,100 1,210 Climbing Washington Center
Tue 09:55:12 AM 39.6739 -77.6056 244° Southwest 482 555 39,300 1,017 Climbing Washington Center
Tue 09:56:12 AM 39.6172 -77.7600 245° Southwest 482 555 40,100 738 Climbing Washington Center
Tue 09:57:14 AM 39.5622 -77.9039 244° Southwest 482 555 40,800 689 Climbing Washington Center
Tue 09:58:14 AM 39.5031 -78.0581 244° Southwest 482 555 41,500 661 Climbing Washington Center
Tue 09:59:12 AM 39.4436 -78.2117 243° Southwest 482 555 42,100 655 Climbing Washington Center
Tue 10:00:13 AM 39.3836 -78.3681 244° Southwest 482 555 42,800 639 Climbing Washington Center
Tue 10:01:14 AM 39.3239 -78.5214 243° Southwest 482 555 43,400 555 Climbing Washington Center
Tue 10:02:12 AM 39.2658 -78.6744 244° Southwest 482 555 43,900 458 Climbing Washington Center
Tue 10:03:12 AM 39.2056 -78.8219 242° Southwest 477 549 44,300 350 Climbing Washington Center
Tue 10:04:12 AM 39.1472 -78.9719 243° Southwest 477 549 44,600 298 Climbing Washington Center
Tue 10:05:13 AM 39.0867 -79.1242 243° Southwest 477 549 44,900 198 Climbing Washington Center
Tue 10:06:13 AM 39.0281 -79.2736 243° Southwest 477 549 45,000 50 Climbing Washington Center
Tue 10:07:14 AM 38.9692 -79.4256 244° Southwest 477 549 45,000  Level Washington Center
Tue 10:08:12 AM 38.9058 -79.5772 242° Southwest 477 549 45,000  Level Washington Center
Tue 10:09:13 AM 38.8483 -79.7339 245° Southwest 484 557 45,000  Level Washington Center
Tue 10:10:13 AM 38.7869 -79.8822 242° Southwest 479 551 45,000  Level Washington Center
Tue 10:11:12 AM 38.7228 -80.0356 242° Southwest 479 551 45,000  Level Washington Center
Tue 10:12:13 AM 38.6650 -80.1864 244° Southwest 479 551 45,000  Level Washington Center
Tue 10:13:31 AM 38.6183 -80.4019 255° West 483 556 45,000  Level Indianapolis Center
Tue 10:14:33 AM 38.5853 -80.5714 256° West 485 558 45,000  Level Indianapolis Center
Tue 10:15:35 AM 38.5533 -80.7386 256° West 485 558 45,000  Level Indianapolis Center
Tue 10:16:37 AM 38.5153 -80.9361 256° West 481 554 45,000  Level Indianapolis Center
Tue 10:17:39 AM 38.4825 -81.0989 256° West 476 548 45,000  Level Indianapolis Center
Tue 10:18:41 AM 38.4494 -81.2628 256° West 475 547 45,000  Level Indianapolis Center
Tue 10:19:43 AM 38.4175 -81.4292 256° West 475 547 45,000  Level Indianapolis Center
Tue 10:20:46 AM 38.3836 -81.5947 255° West 475 547 45,000  Level Indianapolis Center
Tue 10:21:48 AM 38.3517 -81.7583 256° West 475 547 45,000  Level Indianapolis Center
Tue 10:22:50 AM 38.3089 -81.9178 251° West 475 547 45,000  Level Indianapolis Center
Tue 10:23:52 AM 38.2636 -82.0753 250° West 475 547 45,000  Level Indianapolis Center
Tue 10:24:54 AM 38.2186 -82.2331 250° West 475 547 45,000  Level Indianapolis Center
Tue 10:25:56 AM 38.1653 -82.4217 250° West 474 545 45,000  Level Indianapolis Center
Tue 10:26:58 AM 38.1178 -82.5867 250° West 474 545 45,000  Level Indianapolis Center
Tue 10:28:00 AM 38.0731 -82.7436 250° West 475 547 45,000  Level Indianapolis Center
Tue 10:29:02 AM 38.0278 -82.8992 250° West 474 545 45,000  Level Indianapolis Center
Tue 10:30:04 AM 37.9825 -83.0547 250° West 474 545 45,000  Level Indianapolis Center
Tue 10:31:06 AM 37.9369 -83.2108 250° West 474 545 45,000  Level Indianapolis Center
Tue 10:32:08 AM 37.8822 -83.3956 249° West 473 544 45,000  Level Indianapolis Center
Tue 10:33:10 AM 37.8372 -83.5481 250° West 473 544 45,000  Level Indianapolis Center
Tue 10:34:12 AM 37.7906 -83.7042 249° West 474 545 45,000  Level Indianapolis Center
Tue 10:35:14 AM 37.7439 -83.8600 249° West 474 545 45,000  Level Indianapolis Center
Tue 10:36:16 AM 37.6978 -84.0133 249° West 473 544 45,000  Level Indianapolis Center
Tue 10:37:18 AM 37.6419 -84.1939 249° West 472 543 45,000  Level Indianapolis Center
Tue 10:38:20 AM 37.5956 -84.3483 249° West 472 543 45,000  Level Indianapolis Center
Tue 10:39:22 AM 37.5481 -84.5019 249° West 472 543 45,000  Level Indianapolis Center
Tue 10:40:23 AM 37.4992 -84.6575 248° West 473 544 45,000  Level Indianapolis Center
Tue 10:41:25 AM 37.4519 -84.8106 249° West 473 544 45,000  Level Indianapolis Center
Tue 10:42:27 AM 37.4036 -84.9642 248° West 473 544 45,000  Level Indianapolis Center
Tue 10:43:29 AM 37.3469 -85.1456 249° West 473 544 45,000  Level Indianapolis Center
Tue 10:44:31 AM 37.2989 -85.3000 249° West 474 545 45,000  Level Indianapolis Center
Tue 10:45:33 AM 37.2497 -85.4536 248° West 474 545 45,000  Level Indianapolis Center
Tue 10:46:35 AM 37.2031 -85.6017 248° West 474 545 45,000  Level Indianapolis Center
Tue 10:47:37 AM 37.1522 -85.7561 248° West 475 547 45,000  Level Indianapolis Center
Tue 10:48:39 AM 37.0981 -85.9244 248° West 476 548 45,000  Level Indianapolis Center
Tue 10:49:44 AM 37.0417 -86.0956 248° West 477 549 45,000  Level Memphis Center
Tue 10:50:46 AM 36.9919 -86.2489 248° West 477 549 45,000  Level Memphis Center
Tue 10:51:48 AM 36.9417 -86.4011 248° West 477 549 45,000  Level Memphis Center
Tue 10:52:50 AM 36.8786 -86.5828 247° West 477 549 45,000  Level Memphis Center
Tue 10:53:52 AM 36.8236 -86.7325 245° Southwest 477 549 45,000  Level Memphis Center
Tue 10:54:54 AM 36.7744 -86.8697 246° West 477 549 45,000  Level Memphis Center
Tue 10:55:56 AM 36.7192 -87.0197 245° Southwest 477 549 45,000  Level Memphis Center
Tue 10:56:59 AM 36.6533 -87.1989 245° Southwest 477 549 45,000  Level Memphis Center
Tue 10:58:01 AM 36.5997 -87.3469 246° West 475 547 45,000  Level Memphis Center
Tue 10:59:03 AM 36.5450 -87.4936 245° Southwest 472 543 45,000  Level Memphis Center
Tue 11:00:05 AM 36.4914 -87.6414 246° West 470 541 45,000  Level Memphis Center
Tue 11:01:07 AM 36.4356 -87.7883 245° Southwest 470 541 45,000  Level Memphis Center
Tue 11:02:09 AM 36.3819 -87.9342 245° Southwest 469 540 45,000  Level Memphis Center
Tue 11:03:11 AM 36.3150 -88.1119 245° Southwest 470 541 45,000  Level Memphis Center
Tue 11:04:13 AM 36.2606 -88.2597 245° Southwest 470 541 45,000  Level Memphis Center
Tue 11:05:15 AM 36.2028 -88.4083 244° Southwest 472 543 45,000  Level Memphis Center
Tue 11:06:17 AM 36.1458 -88.5564 245° Southwest 472 543 45,000  Level Memphis Center
Tue 11:07:19 AM 36.0875 -88.7081 245° Southwest 480 552 45,000  Level Memphis Center
Tue 11:08:21 AM 36.0294 -88.8572 244° Southwest 481 554 45,000  Level Memphis Center
Tue 11:09:23 AM 35.9714 -89.0067 244° Southwest 481 554 45,000  Level Memphis Center
Tue 11:10:25 AM 35.9014 -89.1864 244° Southwest 481 554 45,000  Level Memphis Center
Tue 11:11:28 AM 35.8433 -89.3356 244° Southwest 481 554 45,000  Level Memphis Center
Tue 11:12:30 AM 35.7856 -89.4839 244° Southwest 481 554 45,000  Level Memphis Center
Tue 11:13:32 AM 35.7272 -89.6331 244° Southwest 480 552 45,000  Level Memphis Center
Tue 11:14:34 AM 35.6706 -89.7753 244° Southwest 480 552 45,000  Level Memphis Center
Tue 11:15:36 AM 35.6117 -89.9219 244° Southwest 481 554 45,000  Level Memphis Center
Tue 11:16:38 AM 35.5408 -90.0989 244° Southwest 481 554 45,000  Level Memphis Center
Tue 11:17:40 AM 35.4817 -90.2453 244° Southwest 481 554 45,000  Level Memphis Center
Tue 11:18:42 AM 35.4228 -90.3919 244° Southwest 483 556 45,000  Level Memphis Center
Tue 11:19:44 AM 35.3628 -90.5378 243° Southwest 483 556 45,000  Level Memphis Center
Tue 11:20:46 AM 35.2903 -90.7142 243° Southwest 483 556 45,000  Level Memphis Center
Tue 11:21:48 AM 35.2303 -90.8619 244° Southwest 484 557 45,000  Level Memphis Center
Tue 11:22:50 AM 35.1700 -91.0092 243° Southwest 485 558 45,000  Level Memphis Center
Tue 11:23:52 AM 35.1111 -91.1558 244° Southwest 485 558 45,000  Level Memphis Center
Tue 11:24:54 AM 35.0489 -91.3031 243° Southwest 486 559 45,000  Level Memphis Center
Tue 11:25:56 AM 34.9856 -91.4542 243° Southwest 487 560 45,000  Level Memphis Center
Tue 11:26:59 AM 34.9108 -91.6311 243° Southwest 487 560 45,000  Level Memphis Center
Tue 11:28:01 AM 34.8478 -91.7792 243° Southwest 487 560 45,000  Level Memphis Center
Tue 11:29:03 AM 34.7858 -91.9278 243° Southwest 488 562 45,000  Level Memphis Center
Tue 11:30:05 AM 34.7211 -92.0767 242° Southwest 491 565 45,000  Level Memphis Center
Tue 11:31:07 AM 34.6633 -92.2292 245° Southwest 494 568 45,000  Level Memphis Center
Tue 11:32:09 AM 34.6225 -92.3889 253° West 494 568 45,000  Level Memphis Center
Tue 11:33:11 AM 34.5808 -92.5475 252° West 494 568 45,000  Level Memphis Center
Tue 11:34:13 AM 34.5297 -92.7408 252° West 495 570 45,000  Level Memphis Center
Tue 11:35:15 AM 34.4867 -92.8997 252° West 495 570 45,000  Level Memphis Center
Tue 11:36:17 AM 34.4439 -93.0614 252° West 496 571 45,000  Level Memphis Center
Tue 11:37:19 AM 34.4011 -93.2192 252° West 496 571 45,000  Level Memphis Center
Tue 11:38:21 AM 34.3567 -93.3792 251° West 496 571 45,000  Level Memphis Center
Tue 11:39:23 AM 34.3083 -93.5567 252° West 497 572 45,000  Level Memphis Center
Tue 11:40:26 AM 34.2642 -93.7169 252° West 498 573 45,000  Level Memphis Center
Tue 11:41:28 AM 34.2206 -93.8750 252° West 498 573 45,000  Level Memphis Center
Tue 11:42:30 AM 34.1758 -94.0356 251° West 500 575 45,000 -743 Level Memphis Center
Tue 11:43:13 AM 34.1431 -94.1631 253° West 501 577 43,700 -1,829 Descending Fort Worth Center
Tue 11:44:15 AM 34.1011 -94.3061 251° West 466 536 41,800 -1,984 Descending Fort Worth Center
Tue 11:45:17 AM 34.0597 -94.4536 251° West 461 531 39,600 -2,419 Descending Fort Worth Center
Tue 11:46:19 AM 34.0056 -94.6439 251° West 495 570 36,800 -2,448 Descending Fort Worth Center
Tue 11:47:22 AM 33.9592 -94.8044 251° West 507 583 34,500 -2,208 Descending Fort Worth Center
Tue 11:48:24 AM 33.9117 -94.9683 251° West 514 592 32,200 -2,226 Descending Fort Worth Center
Tue 11:49:26 AM 33.8639 -95.1292 250° West 515 593 29,900 -2,226 Descending Fort Worth Center
Tue 11:50:28 AM 33.8069 -95.2786 245° Southwest 503 579 27,600 -2,613 Descending Fort Worth Center
Tue 11:51:30 AM 33.7206 -95.4447 238° Southwest 495 570 24,500 -2,758 Descending Fort Worth Center
Tue 11:52:32 AM 33.6564 -95.5800 240° Southwest 475 547 21,900 -2,419 Descending Fort Worth Center
Tue 11:53:34 AM 33.5842 -95.7056 235° Southwest 453 521 19,500 -2,129 Descending Fort Worth Center
Tue 11:54:36 AM 33.5203 -95.8358 240° Southwest 433 498 17,500 -2,081 Descending Fort Worth Center
Tue 11:55:38 AM 33.4561 -95.9603 238° Southwest 412 474 15,200 -2,032 Descending Fort Worth Center
Tue 11:56:40 AM 33.3994 -96.0711 239° Southwest 393 452 13,300 -1,536 Descending Fort Worth Center
Tue 11:57:43 AM 33.3478 -96.1689 238° Southwest 318 366 12,000 -1,392 Descending Fort Worth Center
Tue 11:58:45 AM 33.3069 -96.2492 239° Southwest 285 328 10,400 -1,452 Descending Fort Worth Center
Tue 11:59:47 AM 33.2631 -96.3319 238° Southwest 278 320 9,000 -871 Descending Fort Worth Center
Tue 12:00:49 PM 33.2189 -96.4047 234° Southwest 270 311 8,600 -726 Descending Fort Worth Center
Tue 12:01:51 PM 33.1747 -96.4778 234° Southwest 273 314 7,500 -1,113 Descending Fort Worth Center
Tue 12:02:53 PM 33.1278 -96.5553 234° Southwest 269 310 6,300 -1,113 Descending Fort Worth Center
Tue 12:03:55 PM 33.0850 -96.6244 234° Southwest 262 302 5,200 -968 Descending Fort Worth Center
Tue 12:04:57 PM 33.0419 -96.6933 233° Southwest 246 283 4,300 -968 Descending Fort Worth Center
Tue 12:05:59 PM 33.0017 -96.7603 234° Southwest 246 283 3,200 -629 Descending Fort Worth Center
Tue 12:07:01 PM 32.9603 -96.8261 233° Southwest 233 268 3,000 -192 Descending Fort Worth Center
Tue 12:08:04 PM 32.9261 -96.8783 232° Southwest 193 222 2,800 -624 Descending Fort Worth Center
Tue 12:09:06 PM 32.8869 -96.8892 193° South 163 188 1,700 -1,016 Descending Fort Worth Center
Tue 12:10:08 PM 32.8619 -96.8628 138° Southeast 138 159 700 -968 Descending Fort Worth Center
Tue 12:12:00 PM 32.8471 -96.8518 228° Southwest  Level Estimated

Login

Don't have an account? Register now (free) for customized features, flight alerts, and more!